Time;durP1;ratioP1;P1;durP2;ratioP2;P2;SDS_P1;SDS_P2;PMS_P1;PMS_P2;Temp;Humidity;BMP_temperature;BMP_pressure;BME280_temperature;BME280_humidity;BME280_pressure;Samples;Min_cycle;Max_cycle;Signal;HPM_P1;HPM_P2
2021/12/29 00:00:31;;;;;;;4.50;0.80;;;20.30;52.10;;;;;;5041384;28;20509;-46
2021/12/29 00:03:00;;;;;;;5.55;0.45;;;20.30;52.20;;;;;;5038002;28;20053;-48
2021/12/29 00:05:29;;;;;;;5.13;0.52;;;20.30;52.30;;;;;;5044572;28;20858;-46
2021/12/29 00:07:56;;;;;;;7.05;0.25;;;20.30;52.40;;;;;;5039848;28;20044;-44
2021/12/29 00:10:23;;;;;;;4.60;0.20;;;20.20;52.40;;;;;;5040902;28;20044;-44
2021/12/29 00:12:52;;;;;;;4.18;0.68;;;20.20;52.50;;;;;;5037696;28;20129;-44
2021/12/29 00:15:25;;;;;;;2.45;0.30;;;20.20;52.60;;;;;;5040119;28;20047;-45
2021/12/29 00:17:53;;;;;;;4.10;0.35;;;20.20;52.70;;;;;;5040081;28;20049;-43
2021/12/29 00:20:27;;;;;;;11.65;1.33;;;20.20;52.70;;;;;;5039621;28;20124;-48
2021/12/29 00:22:54;;;;;;;4.38;0.73;;;20.10;52.80;;;;;;5037836;28;20588;-43
2021/12/29 00:25:21;;;;;;;6.53;0.43;;;20.10;52.90;;;;;;5036628;28;20860;-44
2021/12/29 00:27:48;;;;;;;8.10;0.70;;;20.10;53.00;;;;;;5046347;28;20051;-48
2021/12/29 00:30:16;;;;;;;3.53;0.63;;;20.10;53.20;;;;;;5039451;28;20030;-44
2021/12/29 00:32:57;;;;;;;4.13;0.30;;;20.00;53.20;;;;;;5038106;28;20196;-44
2021/12/29 00:35:43;;;;;;;9.32;1.02;;;20.00;53.20;;;;;;5041519;28;20162;-43
2021/12/29 00:38:28;;;;;;;11.75;0.60;;;20.00;53.20;;;;;;5037973;28;20045;-46
2021/12/29 00:41:16;;;;;;;6.15;1.00;;;20.00;53.40;;;;;;5043759;28;20033;-45
2021/12/29 00:43:51;;;;;;;10.35;0.90;;;19.90;53.40;;;;;;5034041;28;20056;-43
2021/12/29 00:46:34;;;;;;;6.90;1.00;;;19.90;53.40;;;;;;5031243;28;20505;-43
2021/12/29 00:49:03;;;;;;;6.05;1.75;;;19.90;53.40;;;;;;5032235;28;20474;-48
2021/12/29 00:51:30;;;;;;;4.93;0.75;;;19.90;53.50;;;;;;5037121;28;20048;-48
2021/12/29 00:53:57;;;;;;;6.63;1.50;;;19.90;53.50;;;;;;5037200;28;20533;-47
2021/12/29 00:56:24;;;;;;;8.32;1.15;;;19.90;53.60;;;;;;5038607;28;20040;-49
2021/12/29 00:58:51;;;;;;;4.10;0.28;;;19.90;53.60;;;;;;5034352;28;20549;-45
2021/12/29 01:01:18;;;;;;;22.73;1.05;;;19.80;53.60;;;;;;5033023;28;20418;-46
2021/12/29 01:03:46;;;;;;;6.28;0.85;;;19.80;53.60;;;;;;5031857;28;20034;-45
2021/12/29 01:06:15;;;;;;;4.53;0.38;;;19.80;53.60;;;;;;5036780;28;20046;-47
2021/12/29 01:08:42;;;;;;;9.57;1.10;;;19.80;53.70;;;;;;5037894;28;20661;-50
2021/12/29 01:11:09;;;;;;;4.25;0.40;;;19.80;53.70;;;;;;5034087;28;20052;-42
2021/12/29 01:13:44;;;;;;;5.93;0.68;;;19.80;53.80;;;;;;5031503;28;20500;-43
2021/12/29 01:16:36;;;;;;;3.92;0.30;;;19.80;53.80;;;;;;5042448;28;20037;-43
2021/12/29 01:19:09;;;;;;;5.90;0.82;;;19.80;53.90;;;;;;5034818;28;20048;-44
2021/12/29 01:21:39;;;;;;;2.83;0.82;;;19.80;53.90;;;;;;5033238;28;20046;-43
2021/12/29 01:24:07;;;;;;;5.78;0.45;;;19.70;53.90;;;;;;5037523;28;20056;-50
2021/12/29 01:26:35;;;;;;;10.15;1.05;;;19.70;53.90;;;;;;5042570;28;20382;-46
2021/12/29 01:29:02;;;;;;;7.38;0.98;;;19.70;53.90;;;;;;5033197;28;20041;-46
2021/12/29 01:31:29;;;;;;;5.35;0.52;;;19.70;53.90;;;;;;5031256;28;20041;-45
2021/12/29 01:33:56;;;;;;;0.85;0.45;;;19.70;53.90;;;;;;5046302;28;20373;-50
2021/12/29 01:36:24;;;;;;;6.47;1.27;;;19.70;53.90;;;;;;5037440;28;20053;-45
2021/12/29 01:38:52;;;;;;;3.65;0.30;;;19.70;54.00;;;;;;5034935;28;20059;-43
2021/12/29 01:41:20;;;;;;;7.95;0.65;;;19.70;54.00;;;;;;5043563;28;20028;-45
2021/12/29 01:43:46;;;;;;;3.78;1.45;;;19.70;54.00;;;;;;5032688;28;20053;-52
2021/12/29 01:46:13;;;;;;;2.72;0.40;;;19.70;54.00;;;;;;5033300;28;20037;-45
2021/12/29 01:48:41;;;;;;;3.45;0.45;;;19.70;54.00;;;;;;5036656;28;20049;-47
2021/12/29 01:51:08;;;;;;;4.05;0.63;;;19.70;54.00;;;;;;5032344;28;20376;-47
2021/12/29 01:53:36;;;;;;;5.05;0.30;;;19.60;54.00;;;;;;5037666;28;20039;-49
2021/12/29 01:56:05;;;;;;;5.97;1.17;;;19.60;54.00;;;;;;5033488;28;20043;-47
2021/12/29 01:58:32;;;;;;;6.05;0.40;;;19.60;54.10;;;;;;5030427;28;20122;-47
2021/12/29 02:01:00;;;;;;;4.90;0.38;;;19.60;54.10;;;;;;5042507;28;20049;-45
2021/12/29 02:03:27;;;;;;;5.13;1.10;;;19.60;54.20;;;;;;5036906;28;20124;-46
2021/12/29 02:05:54;;;;;;;4.70;0.43;;;19.60;54.20;;;;;;5033007;28;20037;-47
2021/12/29 02:08:23;;;;;;;5.20;0.85;;;19.60;54.20;;;;;;5033459;28;20128;-50
2021/12/29 02:10:51;;;;;;;4.25;0.35;;;19.60;54.20;;;;;;5036656;28;20415;-47
2021/12/29 02:13:20;;;;;;;5.63;0.40;;;19.60;54.30;;;;;;5034215;28;20049;-44
2021/12/29 02:15:48;;;;;;;3.13;0.32;;;19.60;54.30;;;;;;5044266;28;20049;-45
2021/12/29 02:18:16;;;;;;;4.40;1.48;;;19.60;54.30;;;;;;5033665;28;20504;-43
2021/12/29 02:20:48;;;;;;;1.90;0.40;;;19.60;54.30;;;;;;5037779;28;20040;-46
2021/12/29 02:23:19;;;;;;;8.52;1.15;;;19.60;54.40;;;;;;5033050;28;20037;-45
2021/12/29 02:25:52;;;;;;;5.57;0.70;;;19.50;54.30;;;;;;5038999;28;20490;-47
2021/12/29 02:28:23;;;;;;;3.38;0.30;;;19.60;54.40;;;;;;5031856;28;20067;-46
2021/12/29 02:30:51;;;;;;;6.47;0.10;;;19.50;54.30;;;;;;5033144;28;20063;-46
2021/12/29 02:33:18;;;;;;;6.35;0.47;;;19.60;54.40;;;;;;5031977;28;20056;-46
2021/12/29 02:35:47;;;;;;;1.50;0.20;;;19.50;54.40;;;;;;5032980;28;20052;-44
2021/12/29 02:38:24;;;;;;;2.13;0.70;;;19.60;54.40;;;;;;5035935;28;20532;-44
2021/12/29 02:40:53;;;;;;;5.30;0.93;;;19.50;54.40;;;;;;5031610;28;20403;-44
2021/12/29 02:43:22;;;;;;;3.05;0.85;;;19.50;54.40;;;;;;5030218;28;20033;-44
2021/12/29 02:45:58;;;;;;;5.40;0.98;;;19.50;54.40;;;;;;5029803;28;20116;-46
2021/12/29 02:48:26;;;;;;;3.42;0.20;;;19.50;54.50;;;;;;5034957;28;20037;-43
2021/12/29 02:50:56;;;;;;;1.02;0.25;;;19.50;54.50;;;;;;5033072;28;20045;-48
2021/12/29 02:53:25;;;;;;;4.35;0.35;;;19.50;54.50;;;;;;5033270;28;20045;-50
2021/12/29 02:55:53;;;;;;;6.97;1.10;;;19.50;54.50;;;;;;5041983;28;20099;-46
2021/12/29 02:58:20;;;;;;;6.03;0.30;;;19.50;54.50;;;;;;5032532;28;20399;-46
2021/12/29 03:00:48;;;;;;;3.97;0.30;;;19.50;54.50;;;;;;5030239;28;20044;-47
2021/12/29 03:03:16;;;;;;;5.22;1.70;;;19.50;54.50;;;;;;5033393;28;20048;-46
2021/12/29 03:05:43;;;;;;;5.55;0.40;;;19.50;54.50;;;;;;5037575;28;20096;-46
2021/12/29 03:08:13;;;;;;;4.60;0.30;;;19.50;54.50;;;;;;5032871;28;20041;-50
2021/12/29 03:10:41;;;;;;;6.45;0.65;;;19.50;54.60;;;;;;5029686;28;20119;-49
2021/12/29 03:13:08;;;;;;;4.70;0.30;;;19.50;54.60;;;;;;5031780;28;20494;-50
2021/12/29 03:15:36;;;;;;;3.45;0.30;;;19.50;54.60;;;;;;5044961;28;20053;-48
2021/12/29 03:18:04;;;;;;;3.83;0.65;;;19.50;54.60;;;;;;5033149;28;20088;-48
2021/12/29 03:20:31;;;;;;;7.45;0.95;;;19.40;54.60;;;;;;5034345;28;20371;-45
2021/12/29 03:22:59;;;;;;;3.05;0.30;;;19.40;54.60;;;;;;5037660;28;20072;-49
2021/12/29 03:25:28;;;;;;;3.10;0.30;;;19.50;54.70;;;;;;5045110;28;20038;-44
2021/12/29 03:27:58;;;;;;;4.63;0.93;;;19.40;54.60;;;;;;5033747;28;20046;-45
2021/12/29 03:30:27;;;;;;;1.27;0.10;;;19.40;54.70;;;;;;5034082;28;20046;-47
2021/12/29 03:33:03;;;;;;;4.35;0.45;;;19.40;54.70;;;;;;5038637;28;20037;-46
2021/12/29 03:35:31;;;;;;;;;;;19.40;54.70;;;;;;5037164;28;20053;-51
2021/12/29 03:37:59;;;;;;;2.33;0.30;;;19.40;54.60;;;;;;5041941;28;20296;-47
2021/12/29 03:40:28;;;;;;;3.90;0.20;;;19.40;54.80;;;;;;5034502;28;20056;-50
2021/12/29 03:42:55;;;;;;;3.75;0.35;;;19.40;54.80;;;;;;5036504;28;20510;-50
2021/12/29 03:45:23;;;;;;;5.05;0.95;;;19.40;54.90;;;;;;5035882;28;20049;-46
2021/12/29 03:47:50;;;;;;;3.55;0.60;;;19.40;54.90;;;;;;5036062;28;20048;-49
2021/12/29 03:50:17;;;;;;;4.50;0.30;;;19.40;54.90;;;;;;5037402;28;20041;-46
2021/12/29 03:52:44;;;;;;;4.55;0.90;;;19.40;54.90;;;;;;5035964;28;20668;-45
2021/12/29 03:55:12;;;;;;;5.43;0.30;;;19.40;55.00;;;;;;5041637;28;20143;-50
2021/12/29 03:57:41;;;;;;;3.63;0.43;;;19.40;55.00;;;;;;5033573;28;20053;-49
2021/12/29 04:00:11;;;;;;;3.95;1.67;;;19.40;55.00;;;;;;5040257;28;20049;-49
2021/12/29 04:02:39;;;;;;;2.35;0.10;;;19.40;55.00;;;;;;5036028;28;20085;-47
2021/12/29 04:05:07;;;;;;;8.48;0.68;;;19.40;55.10;;;;;;5035679;28;20635;-45
2021/12/29 04:07:35;;;;;;;2.42;0.30;;;19.40;55.00;;;;;;5047026;28;20041;-46
2021/12/29 04:10:02;;;;;;;5.00;0.10;;;19.40;55.10;;;;;;5036584;28;20053;-48
2021/12/29 04:12:29;;;;;;;5.47;0.15;;;19.40;55.10;;;;;;5036557;28;20075;-47
2021/12/29 04:14:57;;;;;;;4.63;0.35;;;19.40;55.10;;;;;;5037610;28;20056;-49
2021/12/29 04:17:29;;;;;;;2.78;0.55;;;19.40;55.10;;;;;;5039390;28;20116;-44
2021/12/29 04:22:42;;;;;;;8.93;0.30;;;19.40;55.10;;;;;;5034596;28;20041;-50
2021/12/29 04:25:09;;;;;;;2.35;0.25;;;19.40;55.10;;;;;;5043077;28;20414;-50
2021/12/29 04:27:36;;;;;;;2.83;0.38;;;19.40;55.10;;;;;;5038400;28;20670;-48
2021/12/29 04:30:05;;;;;;;3.97;1.15;;;19.40;55.10;;;;;;5035647;28;20050;-49
2021/12/29 04:32:32;;;;;;;2.10;0.30;;;19.40;55.20;;;;;;5035078;28;20462;-45
2021/12/29 04:34:59;;;;;;;2.03;0.30;;;19.40;55.20;;;;;;5036211;28;20049;-46
2021/12/29 04:37:26;;;;;;;6.95;0.20;;;19.40;55.20;;;;;;5035149;28;20037;-44
2021/12/29 04:39:53;;;;;;;2.35;0.60;;;19.30;55.10;;;;;;5032483;28;20435;-48
2021/12/29 04:42:20;;;;;;;4.85;0.30;;;19.40;55.20;;;;;;5035264;28;20041;-46
2021/12/29 04:44:47;;;;;;;1.65;0.47;;;19.30;55.10;;;;;;5039573;28;20053;-49
2021/12/29 04:47:15;;;;;;;2.00;0.20;;;19.30;55.20;;;;;;5035849;28;20033;-45
2021/12/29 04:49:43;;;;;;;3.22;0.52;;;19.30;55.20;;;;;;5032488;28;20482;-44
2021/12/29 04:52:13;;;;;;;1.40;0.38;;;19.30;55.20;;;;;;5033116;28;20041;-50
2021/12/29 04:54:40;;;;;;;1.38;0.10;;;19.30;55.30;;;;;;5043153;28;20071;-47
2021/12/29 04:57:08;;;;;;;2.50;0.50;;;19.30;55.30;;;;;;5035659;28;20043;-44
2021/12/29 04:59:35;;;;;;;4.10;0.22;;;19.30;55.30;;;;;;5035332;28;20060;-44
2021/12/29 05:02:03;;;;;;;2.97;0.10;;;19.30;55.40;;;;;;5034406;28;20097;-51
2021/12/29 05:04:33;;;;;;;1.50;0.20;;;19.30;55.40;;;;;;5035100;28;20033;-48
2021/12/29 05:09:46;;;;;;;4.40;0.20;;;19.30;55.50;;;;;;5046836;28;20041;-47
2021/12/29 05:12:14;;;;;;;1.80;0.32;;;19.30;55.50;;;;;;5046221;28;20047;-46
2021/12/29 05:14:41;;;;;;;1.02;0.20;;;19.30;55.60;;;;;;5038982;28;20792;-47
2021/12/29 05:17:08;;;;;;;0.70;0.10;;;19.30;55.60;;;;;;5042673;28;20124;-45
2021/12/29 05:19:36;;;;;;;0.70;0.20;;;19.30;55.60;;;;;;5033322;28;20041;-50
2021/12/29 05:22:04;;;;;;;2.38;0.17;;;19.30;55.60;;;;;;5035735;28;20430;-48
2021/12/29 05:24:31;;;;;;;3.45;0.73;;;19.30;55.70;;;;;;5041293;28;20433;-46
2021/12/29 05:26:59;;;;;;;1.13;0.20;;;19.30;55.60;;;;;;5035288;28;20045;-49
2021/12/29 05:29:27;;;;;;;5.35;0.10;;;19.30;55.70;;;;;;5038974;28;20048;-48
2021/12/29 05:31:54;;;;;;;3.63;0.10;;;19.30;55.70;;;;;;5034716;28;20125;-49
2021/12/29 05:34:21;;;;;;;0.80;0.35;;;19.30;55.70;;;;;;5036062;28;20048;-46
2021/12/29 05:36:50;;;;;;;1.15;0.10;;;19.30;55.70;;;;;;5030573;28;20055;-49
2021/12/29 05:39:17;;;;;;;1.55;0.45;;;19.30;55.80;;;;;;5036463;28;20056;-53
2021/12/29 05:41:44;;;;;;;1.55;0.10;;;19.30;55.80;;;;;;5034408;28;20046;-48
2021/12/29 05:44:11;;;;;;;1.10;0.35;;;19.30;55.80;;;;;;5034171;28;20141;-47
2021/12/29 05:46:38;;;;;;;2.63;0.10;;;19.30;55.80;;;;;;5043370;28;20072;-45
2021/12/29 05:49:05;;;;;;;0.82;0.10;;;19.30;55.80;;;;;;5034729;28;20144;-47
2021/12/29 05:51:32;;;;;;;0.80;0.32;;;19.30;55.90;;;;;;5033089;28;20132;-46
2021/12/29 05:54:01;;;;;;;1.45;0.10;;;19.20;55.80;;;;;;5037780;28;20048;-47
2021/12/29 05:56:28;;;;;;;1.92;0.38;;;19.30;56.00;;;;;;5038517;28;20175;-45
2021/12/29 05:58:59;;;;;;;0.80;0.10;;;19.20;55.90;;;;;;5033956;28;20044;-46
2021/12/29 06:01:28;;;;;;;0.75;0.10;;;19.20;55.90;;;;;;5031343;28;20053;-47
2021/12/29 06:03:55;;;;;;;0.63;0.40;;;19.20;55.90;;;;;;5031105;28;20045;-45
2021/12/29 06:06:22;;;;;;;0.63;0.10;;;19.20;56.00;;;;;;5038422;28;20052;-48
2021/12/29 06:08:49;;;;;;;0.77;0.10;;;19.20;56.00;;;;;;5034456;28;20042;-46
2021/12/29 06:11:18;;;;;;;2.15;0.20;;;19.20;56.00;;;;;;5034372;28;20041;-43
2021/12/29 06:13:45;;;;;;;1.02;0.10;;;19.20;56.00;;;;;;5033447;28;20052;-46
2021/12/29 06:16:12;;;;;;;1.75;0.10;;;19.20;56.00;;;;;;5042765;28;20037;-47
2021/12/29 06:18:39;;;;;;;2.17;0.28;;;19.20;56.10;;;;;;5033065;28;20038;-44
2021/12/29 06:21:06;;;;;;;2.40;0.17;;;19.20;56.10;;;;;;5038023;28;20053;-47
2021/12/29 06:23:33;;;;;;;1.15;0.10;;;19.20;56.10;;;;;;5038659;28;20044;-48
2021/12/29 06:26:00;;;;;;;2.25;0.10;;;19.20;56.10;;;;;;5040134;28;20041;-45
2021/12/29 06:28:28;;;;;;;1.27;0.10;;;19.20;56.20;;;;;;5031576;28;20056;-47
2021/12/29 06:30:55;;;;;;;0.30;0.00;;;19.20;56.20;;;;;;5033253;28;20048;-48
2021/12/29 06:33:22;;;;;;;0.65;0.10;;;19.20;56.20;;;;;;5038913;28;20418;-46
2021/12/29 06:35:49;;;;;;;0.35;0.10;;;19.20;56.20;;;;;;5037072;28;20046;-50
2021/12/29 06:38:17;;;;;;;0.10;0.10;;;19.20;56.20;;;;;;5035890;28;20113;-47
2021/12/29 06:40:44;;;;;;;0.45;0.45;;;19.20;56.30;;;;;;5033077;28;20049;-48
2021/12/29 06:43:11;;;;;;;1.15;0.10;;;19.20;56.30;;;;;;5034569;28;20037;-46
2021/12/29 06:45:39;;;;;;;0.43;0.10;;;19.20;56.30;;;;;;5032703;28;20053;-48
2021/12/29 06:48:06;;;;;;;1.58;0.10;;;19.20;56.30;;;;;;5033739;28;20043;-49
2021/12/29 06:50:34;;;;;;;0.40;0.10;;;19.20;56.30;;;;;;5038473;28;20067;-45
2021/12/29 06:53:01;;;;;;;0.47;0.10;;;19.20;56.30;;;;;;5034097;28;20763;-47
2021/12/29 06:55:28;;;;;;;0.63;0.10;;;19.20;56.40;;;;;;5041722;28;20037;-46
2021/12/29 06:57:55;;;;;;;0.22;0.10;;;19.20;56.40;;;;;;5034515;28;20037;-49
2021/12/29 07:00:22;;;;;;;1.08;0.10;;;19.20;56.40;;;;;;5049414;28;20045;-48
2021/12/29 07:02:51;;;;;;;0.10;0.10;;;19.20;56.40;;;;;;5040869;28;20053;-45
2021/12/29 07:05:18;;;;;;;0.30;0.10;;;19.20;56.40;;;;;;5038250;28;20091;-47
2021/12/29 07:07:49;;;;;;;0.00;0.00;;;19.10;56.40;;;;;;5037033;28;20044;-44
2021/12/29 07:10:16;;;;;;;0.10;0.10;;;19.20;56.40;;;;;;5041918;28;20110;-51
2021/12/29 07:12:43;;;;;;;0.75;0.03;;;19.10;56.40;;;;;;5035063;28;20049;-44
2021/12/29 07:15:10;;;;;;;0.20;0.00;;;19.20;57.10;;;;;;5038491;28;20129;-48
2021/12/29 07:17:37;;;;;;;1.95;0.30;;;19.10;56.40;;;;;;5042137;28;20052;-44
2021/12/29 07:20:07;;;;;;;0.10;0.00;;;19.20;56.50;;;;;;5038118;28;20135;-45
2021/12/29 07:22:34;;;;;;;1.95;0.00;;;19.10;56.50;;;;;;5034790;28;20048;-44
2021/12/29 07:25:02;;;;;;;0.32;0.00;;;19.10;56.50;;;;;;5043853;28;20049;-50
2021/12/29 07:27:30;;;;;;;0.43;0.08;;;19.10;56.60;;;;;;5041566;28;20041;-47
2021/12/29 07:29:57;;;;;;;0.30;0.10;;;19.20;56.70;;;;;;5041796;28;20047;-48
2021/12/29 07:32:26;;;;;;;0.75;0.05;;;19.10;56.70;;;;;;5041030;28;20033;-48
2021/12/29 07:34:53;;;;;;;0.40;0.40;;;19.10;56.70;;;;;;5039203;28;20037;-47
2021/12/29 07:37:21;;;;;;;0.10;0.10;;;19.20;56.80;;;;;;5041398;28;20586;-46
2021/12/29 07:39:48;;;;;;;1.75;0.10;;;19.10;56.70;;;;;;5038862;28;20053;-44
2021/12/29 07:42:16;;;;;;;0.52;0.10;;;19.10;56.70;;;;;;5039181;28;20041;-45
2021/12/29 07:44:46;;;;;;;0.30;0.08;;;19.10;56.80;;;;;;5042123;28;20049;-47
2021/12/29 07:47:14;;;;;;;0.10;0.00;;;19.10;56.80;;;;;;5043560;28;20049;-48
2021/12/29 07:49:41;;;;;;;0.65;0.00;;;19.10;56.90;;;;;;5044014;28;20037;-43
2021/12/29 07:52:09;;;;;;;1.85;0.00;;;19.10;57.00;;;;;;5047236;28;20056;-43
2021/12/29 07:54:38;;;;;;;0.20;0.20;;;19.20;57.10;;;;;;5047529;28;20825;-44
2021/12/29 07:57:05;;;;;;;0.10;0.03;;;19.20;57.20;;;;;;5040577;28;20052;-45
2021/12/29 07:59:32;;;;;;;0.08;0.05;;;19.20;57.20;;;;;;5040403;28;20041;-49
2021/12/29 08:01:59;;;;;;;0.50;0.00;;;19.20;57.20;;;;;;5043066;28;20417;-51
2021/12/29 08:04:27;;;;;;;1.08;0.00;;;19.20;57.20;;;;;;5042226;28;20055;-50
2021/12/29 08:06:54;;;;;;;0.22;0.22;;;19.20;57.30;;;;;;5039071;28;20077;-44
2021/12/29 08:09:21;;;;;;;0.80;0.10;;;19.20;57.30;;;;;;5043332;28;20477;-44
2021/12/29 08:11:49;;;;;;;0.10;0.00;;;19.20;57.30;;;;;;5041844;28;20087;-49
2021/12/29 08:14:18;;;;;;;0.30;0.10;;;19.20;57.30;;;;;;5039588;28;20041;-45
2021/12/29 08:16:45;;;;;;;0.20;0.00;;;19.20;57.30;;;;;;5044902;28;20615;-45
2021/12/29 08:19:12;;;;;;;0.25;0.10;;;19.20;57.30;;;;;;5037181;28;20464;-44
2021/12/29 08:21:40;;;;;;;0.38;0.10;;;19.20;57.30;;;;;;5043359;28;20047;-43
2021/12/29 08:24:07;;;;;;;0.10;0.10;;;19.20;57.90;;;;;;5045677;28;20033;-44
2021/12/29 08:26:35;;;;;;;0.10;0.00;;;19.20;57.30;;;;;;5044045;28;20486;-45
2021/12/29 08:29:04;;;;;;;0.10;0.00;;;19.20;57.40;;;;;;5042180;28;20040;-43
2021/12/29 08:31:31;;;;;;;0.80;0.10;;;19.20;57.30;;;;;;5043692;28;20555;-46
2021/12/29 08:33:58;;;;;;;4.65;0.10;;;19.20;57.40;;;;;;5044941;28;20056;-45
2021/12/29 08:36:25;;;;;;;0.20;0.10;;;19.20;58.00;;;;;;5045610;28;20053;-46
2021/12/29 08:38:53;;;;;;;0.10;0.10;;;19.20;57.40;;;;;;5036547;28;20037;-44
2021/12/29 08:41:21;;;;;;;1.00;0.10;;;19.20;57.50;;;;;;5041334;28;20049;-44
2021/12/29 08:43:48;;;;;;;0.15;0.10;;;19.30;57.50;;;;;;5038292;28;20155;-48
2021/12/29 08:46:18;;;;;;;0.15;0.00;;;19.30;57.60;;;;;;5041719;28;20047;-46
2021/12/29 08:48:45;;;;;;;0.08;0.00;;;19.30;57.60;;;;;;5039444;28;20416;-47
2021/12/29 08:51:12;;;;;;;0.20;0.10;;;19.30;57.50;;;;;;5044154;28;20071;-49
2021/12/29 08:53:39;;;;;;;0.10;0.10;;;19.20;57.50;;;;;;5042782;28;20041;-48
2021/12/29 08:56:07;;;;;;;0.32;0.00;;;19.30;57.60;;;;;;5039044;28;20041;-47
2021/12/29 08:58:34;;;;;;;0.10;0.10;;;19.30;57.60;;;;;;5037781;28;20048;-47
2021/12/29 09:01:02;;;;;;;0.20;0.13;;;19.30;57.60;;;;;;5040289;28;20060;-48
2021/12/29 09:03:30;;;;;;;0.75;0.20;;;19.20;57.60;;;;;;5046194;28;20651;-48
2021/12/29 09:05:58;;;;;;;0.10;0.10;;;19.30;57.70;;;;;;5043012;28;20044;-47
2021/12/29 09:08:25;;;;;;;0.20;0.13;;;19.30;57.70;;;;;;5042428;28;20375;-44
2021/12/29 09:10:53;;;;;;;1.10;0.70;;;19.30;57.70;;;;;;5041783;28;20039;-48
2021/12/29 09:13:20;;;;;;;0.30;0.10;;;19.30;57.70;;;;;;5039005;28;20037;-49
2021/12/29 09:15:49;;;;;;;1.30;0.10;;;19.30;57.70;;;;;;5043136;28;20044;-46
2021/12/29 09:18:17;;;;;;;1.52;1.38;;;19.30;57.70;;;;;;5040937;28;20051;-49
2021/12/29 09:20:47;;;;;;;0.00;0.00;;;19.30;58.40;;;;;;5044483;28;20059;-48
2021/12/29 09:23:16;;;;;;;0.20;0.10;;;19.30;57.90;;;;;;5038507;28;20425;-44
2021/12/29 09:25:46;;;;;;;0.28;0.10;;;19.40;58.00;;;;;;5042595;28;20486;-45
2021/12/29 09:28:16;;;;;;;2.05;0.08;;;19.40;58.10;;;;;;5040238;28;20042;-44
2021/12/29 09:30:45;;;;;;;0.10;0.10;;;19.40;58.10;;;;;;5037239;28;20052;-46
2021/12/29 09:33:15;;;;;;;0.80;0.15;;;19.40;58.20;;;;;;5041412;28;20045;-43
2021/12/29 09:35:42;;;;;;;0.20;0.10;;;19.40;58.20;;;;;;5039768;28;20131;-47
2021/12/29 09:38:11;;;;;;;1.95;0.10;;;19.40;58.20;;;;;;5037664;28;20413;-44
2021/12/29 09:40:39;;;;;;;0.90;0.30;;;19.40;58.30;;;;;;5036497;28;20080;-45
2021/12/29 09:43:08;;;;;;;1.60;0.10;;;19.40;58.40;;;;;;5034329;28;20128;-45
2021/12/29 09:45:36;;;;;;;17.13;0.20;;;19.40;58.40;;;;;;5042960;28;20569;-44
2021/12/29 09:48:04;;;;;;;3.45;0.17;;;19.50;58.50;;;;;;5045084;28;20040;-45
2021/12/29 09:50:31;;;;;;;4.20;0.45;;;19.50;58.80;;;;;;5040578;28;20568;-45
2021/12/29 09:52:59;;;;;;;4.93;0.47;;;19.50;59.80;;;;;;5034205;28;20049;-44
2021/12/29 09:55:28;;;;;;;16.48;6.82;;;19.50;61.80;;;;;;5044963;28;20143;-47
2021/12/29 09:57:59;;;;;;;15.90;4.13;;;19.50;63.70;;;;;;5042418;28;20053;-44
2021/12/29 10:00:29;;;;;;;17.83;2.40;;;19.50;64.30;;;;;;5044740;28;20163;-45
2021/12/29 10:02:59;;;;;;;16.23;3.35;;;19.60;64.30;;;;;;5038874;28;20475;-45
2021/12/29 10:05:28;;;;;;;12.60;3.78;;;19.60;64.70;;;;;;5039348;28;20057;-43
2021/12/29 10:08:02;;;;;;;12.55;3.70;;;19.60;64.90;;;;;;5035698;28;20043;-43
2021/12/29 10:10:32;;;;;;;7.97;1.40;;;19.70;65.70;;;;;;5038462;28;20041;-46
2021/12/29 10:13:00;;;;;;;12.80;2.20;;;19.70;65.30;;;;;;5032068;28;20069;-44
2021/12/29 10:15:30;;;;;;;10.15;1.48;;;19.70;65.30;;;;;;5033816;28;20132;-52
2021/12/29 10:18:02;;;;;;;12.40;1.40;;;19.70;65.40;;;;;;5032188;28;20128;-47
2021/12/29 10:20:30;;;;;;;6.18;1.42;;;19.70;65.50;;;;;;5037042;28;20078;-48
2021/12/29 10:22:59;;;;;;;5.45;1.77;;;19.70;65.50;;;;;;5034600;28;20136;-49
2021/12/29 10:25:26;;;;;;;6.70;1.42;;;19.70;65.50;;;;;;5038485;28;20044;-47
2021/12/29 10:27:55;;;;;;;6.63;1.30;;;19.70;65.50;;;;;;5029810;28;20125;-45
2021/12/29 10:30:25;;;;;;;5.97;2.25;;;19.80;65.60;;;;;;5036046;28;20053;-51
2021/12/29 10:32:55;;;;;;;7.05;1.92;;;19.80;65.60;;;;;;5033236;28;20099;-46
2021/12/29 10:35:25;;;;;;;4.25;0.55;;;19.80;65.60;;;;;;5032743;28;20037;-46
2021/12/29 10:37:55;;;;;;;4.03;0.85;;;19.80;65.60;;;;;;5032978;28;20048;-47
2021/12/29 10:40:28;;;;;;;5.13;0.95;;;19.80;65.50;;;;;;5031881;28;20115;-45
2021/12/29 10:42:59;;;;;;;1.55;0.63;;;19.80;65.50;;;;;;5038172;28;20037;-45
2021/12/29 10:45:32;;;;;;;4.97;1.33;;;19.80;65.40;;;;;;5034009;28;20119;-45
2021/12/29 10:48:01;;;;;;;2.55;0.50;;;19.80;65.40;;;;;;5037199;28;20073;-45
2021/12/29 10:50:29;;;;;;;4.05;0.63;;;19.80;65.30;;;;;;5032561;28;20513;-44
2021/12/29 10:52:58;;;;;;;4.50;0.93;;;19.90;65.30;;;;;;5031396;28;20135;-46
2021/12/29 10:55:31;;;;;;;2.58;1.27;;;19.80;65.20;;;;;;5040500;28;20040;-46
2021/12/29 10:58:07;;;;;;;1.95;0.22;;;19.90;65.20;;;;;;5032346;28;20053;-47
2021/12/29 11:00:36;;;;;;;1.85;0.32;;;19.90;65.20;;;;;;5032376;28;20053;-44
2021/12/29 11:03:14;;;;;;;1.42;0.20;;;19.90;65.10;;;;;;5043116;28;20449;-46
2021/12/29 11:05:43;;;;;;;1.60;0.17;;;19.90;65.10;;;;;;5040957;28;20732;-46
2021/12/29 11:08:11;;;;;;;1.65;0.43;;;19.90;65.10;;;;;;5032243;28;20037;-48
2021/12/29 11:10:39;;;;;;;3.03;0.25;;;19.90;65.00;;;;;;5029604;28;20191;-43
2021/12/29 11:13:07;;;;;;;2.58;0.45;;;19.90;65.00;;;;;;5030543;28;20040;-44
2021/12/29 11:15:41;;;;;;;1.27;0.10;;;19.90;64.90;;;;;;5035230;28;20061;-46
2021/12/29 11:18:10;;;;;;;2.58;0.20;;;19.90;65.50;;;;;;5032214;28;20127;-45
2021/12/29 11:20:40;;;;;;;0.82;0.10;;;19.90;64.90;;;;;;5032219;28;20041;-50
2021/12/29 11:23:09;;;;;;;0.88;0.20;;;19.90;64.80;;;;;;5034952;28;20088;-45
2021/12/29 11:25:39;;;;;;;0.82;0.10;;;20.00;64.80;;;;;;5040782;28;20048;-44
2021/12/29 11:28:08;;;;;;;0.73;0.20;;;20.00;64.70;;;;;;5035654;28;20048;-46
2021/12/29 11:30:41;;;;;;;1.02;0.30;;;20.00;64.70;;;;;;5030477;28;20121;-46
2021/12/29 11:33:09;;;;;;;2.08;0.20;;;20.00;64.60;;;;;;5037110;28;20119;-43
2021/12/29 11:35:40;;;;;;;1.05;0.20;;;20.00;64.60;;;;;;5036550;28;20041;-46
2021/12/29 11:38:08;;;;;;;2.03;0.28;;;20.00;64.50;;;;;;5029665;28;20052;-45
2021/12/29 11:40:40;;;;;;;1.90;0.47;;;20.00;64.40;;;;;;5032647;28;20045;-44
2021/12/29 11:43:08;;;;;;;1.05;0.15;;;20.00;64.40;;;;;;5036005;28;20048;-45
2021/12/29 11:45:37;;;;;;;0.50;0.32;;;20.10;64.40;;;;;;5035451;28;20176;-45
2021/12/29 11:48:05;;;;;;;0.50;0.10;;;20.10;64.30;;;;;;5037863;28;20045;-46
2021/12/29 11:50:35;;;;;;;0.63;0.20;;;20.10;64.30;;;;;;5039699;28;20051;-45
2021/12/29 11:53:18;;;;;;;2.63;0.20;;;20.10;64.30;;;;;;5035656;28;20528;-46
2021/12/29 11:55:48;;;;;;;0.30;0.25;;;20.10;64.20;;;;;;5042554;28;20049;-49
2021/12/29 11:58:19;;;;;;;0.20;0.10;;;20.10;64.20;;;;;;5048503;28;20491;-50
2021/12/29 12:00:48;;;;;;;1.15;0.30;;;20.10;64.10;;;;;;5036269;28;20046;-50
2021/12/29 12:03:17;;;;;;;2.05;0.10;;;20.10;64.00;;;;;;5035023;28;20465;-46
2021/12/29 12:05:48;;;;;;;0.32;0.15;;;20.20;64.00;;;;;;5043628;28;20037;-50
2021/12/29 12:08:21;;;;;;;0.30;0.10;;;20.20;63.90;;;;;;5045925;28;20033;-50
2021/12/29 12:10:48;;;;;;;0.45;0.20;;;20.20;63.80;;;;;;5045947;28;20037;-45
2021/12/29 12:13:29;;;;;;;0.60;0.20;;;20.20;63.80;;;;;;5045655;28;20037;-48
2021/12/29 12:16:06;;;;;;;1.17;0.28;;;20.20;63.70;;;;;;5034903;28;20691;-44
2021/12/29 12:18:49;;;;;;;0.65;0.10;;;20.20;63.70;;;;;;5040394;28;20041;-45
2021/12/29 12:21:28;;;;;;;0.30;0.28;;;20.20;63.60;;;;;;5035944;28;20055;-47
2021/12/29 12:24:08;;;;;;;0.30;0.10;;;20.20;63.50;;;;;;5038230;28;20075;-50
2021/12/29 12:26:35;;;;;;;0.20;0.10;;;20.20;63.50;;;;;;5039845;28;20044;-43
2021/12/29 12:29:15;;;;;;;1.08;0.30;;;20.20;63.40;;;;;;5035139;28;20045;-44
2021/12/29 12:31:42;;;;;;;1.95;0.10;;;20.30;63.30;;;;;;5032800;28;20059;-44
2021/12/29 12:34:12;;;;;;;0.70;0.20;;;20.20;63.30;;;;;;5034487;28;20139;-44
2021/12/29 12:36:41;;;;;;;0.75;0.75;;;20.20;63.20;;;;;;5035727;28;20528;-48
2021/12/29 12:39:11;;;;;;;0.65;0.30;;;20.30;63.20;;;;;;5033758;28;20052;-44
2021/12/29 12:41:41;;;;;;;0.65;0.13;;;20.30;63.10;;;;;;5035028;28;20522;-46
2021/12/29 12:44:10;;;;;;;0.65;0.10;;;20.30;63.00;;;;;;5037301;28;20056;-43
2021/12/29 12:46:40;;;;;;;0.13;0.10;;;20.30;62.90;;;;;;5034631;28;20470;-44
2021/12/29 12:49:16;;;;;;;1.33;0.10;;;20.30;62.90;;;;;;5032251;28;20037;-47
2021/12/29 12:51:54;;;;;;;0.52;0.10;;;20.30;62.80;;;;;;5032037;28;20046;-49
2021/12/29 12:54:25;;;;;;;0.55;0.30;;;20.30;62.80;;;;;;5044867;28;20473;-52
2021/12/29 12:56:52;;;;;;;0.17;0.10;;;20.30;62.70;;;;;;5037277;28;20561;-47
2021/12/29 12:59:21;;;;;;;0.17;0.10;;;20.30;62.60;;;;;;5034779;28;20068;-49